sensor_id;sensor_type;location;lat;lon;timestamp;temperature;humidity
78325;DHT22;67584;51.400;6.692;2023-08-21T00:00:45;19.70;77.10
78325;DHT22;67584;51.400;6.692;2023-08-21T00:03:11;19.60;77.10
78325;DHT22;67584;51.400;6.692;2023-08-21T00:05:36;19.60;77.00
78325;DHT22;67584;51.400;6.692;2023-08-21T00:08:02;19.60;77.10
78325;DHT22;67584;51.400;6.692;2023-08-21T00:10:30;19.60;77.10
78325;DHT22;67584;51.400;6.692;2023-08-21T00:12:56;19.50;76.90
78325;DHT22;67584;51.400;6.692;2023-08-21T00:15:21;19.60;76.70
78325;DHT22;67584;51.400;6.692;2023-08-21T00:17:47;19.50;76.80
78325;DHT22;67584;51.400;6.692;2023-08-21T00:20:13;19.60;76.80
78325;DHT22;67584;51.400;6.692;2023-08-21T00:22:38;19.60;77.00
78325;DHT22;67584;51.400;6.692;2023-08-21T00:25:04;19.60;77.00
78325;DHT22;67584;51.400;6.692;2023-08-21T00:27:30;19.60;76.70
78325;DHT22;67584;51.400;6.692;2023-08-21T00:29:56;19.50;76.50
78325;DHT22;67584;51.400;6.692;2023-08-21T00:32:21;19.50;76.40
78325;DHT22;67584;51.400;6.692;2023-08-21T00:34:47;19.60;76.30
78325;DHT22;67584;51.400;6.692;2023-08-21T00:37:12;19.60;76.40
78325;DHT22;67584;51.400;6.692;2023-08-21T00:39:38;19.60;76.30
78325;DHT22;67584;51.400;6.692;2023-08-21T00:42:04;19.70;76.00
78325;DHT22;67584;51.400;6.692;2023-08-21T00:44:31;19.70;75.90
78325;DHT22;67584;51.400;6.692;2023-08-21T00:46:56;19.60;76.00
78325;DHT22;67584;51.400;6.692;2023-08-21T00:49:22;19.60;76.00
78325;DHT22;67584;51.400;6.692;2023-08-21T00:51:49;19.60;76.00
78325;DHT22;67584;51.400;6.692;2023-08-21T00:54:15;19.60;76.00
78325;DHT22;67584;51.400;6.692;2023-08-21T00:56:41;19.50;76.20
78325;DHT22;67584;51.400;6.692;2023-08-21T00:59:07;19.40;76.50
78325;DHT22;67584;51.400;6.692;2023-08-21T01:01:33;19.40;76.50
78325;DHT22;67584;51.400;6.692;2023-08-21T01:04:00;19.40;76.30
78325;DHT22;67584;51.400;6.692;2023-08-21T01:06:25;19.50;76.10
78325;DHT22;67584;51.400;6.692;2023-08-21T01:09:03;19.40;76.20
78325;DHT22;67584;51.400;6.692;2023-08-21T01:11:54;19.40;76.50
78325;DHT22;67584;51.400;6.692;2023-08-21T01:17:13;19.40;75.70
78325;DHT22;67584;51.400;6.692;2023-08-21T01:19:48;19.40;76.50
78325;DHT22;67584;51.400;6.692;2023-08-21T01:22:15;19.30;75.90
78325;DHT22;67584;51.400;6.692;2023-08-21T01:24:40;19.40;75.80
78325;DHT22;67584;51.400;6.692;2023-08-21T01:27:06;19.30;76.00
78325;DHT22;67584;51.400;6.692;2023-08-21T01:29:33;19.20;76.10
78325;DHT22;67584;51.400;6.692;2023-08-21T01:34:37;19.20;76.20
78325;DHT22;67584;51.400;6.692;2023-08-21T01:37:04;19.20;76.30
78325;DHT22;67584;51.400;6.692;2023-08-21T01:39:31;19.20;76.70
78325;DHT22;67584;51.400;6.692;2023-08-21T01:41:57;19.10;76.70
78325;DHT22;67584;51.400;6.692;2023-08-21T01:44:23;19.00;76.70
78325;DHT22;67584;51.400;6.692;2023-08-21T01:46:49;19.10;76.70
78325;DHT22;67584;51.400;6.692;2023-08-21T01:49:15;18.90;76.70
78325;DHT22;67584;51.400;6.692;2023-08-21T01:51:41;19.00;76.70
78325;DHT22;67584;51.400;6.692;2023-08-21T01:54:07;19.00;76.60
78325;DHT22;67584;51.400;6.692;2023-08-21T01:56:32;19.00;76.60
78325;DHT22;67584;51.400;6.692;2023-08-21T01:58:58;18.90;76.70
78325;DHT22;67584;51.400;6.692;2023-08-21T02:01:24;18.80;76.90
78325;DHT22;67584;51.400;6.692;2023-08-21T02:03:50;18.80;77.00
78325;DHT22;67584;51.400;6.692;2023-08-21T02:06:15;18.80;77.10
78325;DHT22;67584;51.400;6.692;2023-08-21T02:08:41;18.70;77.10
78325;DHT22;67584;51.400;6.692;2023-08-21T02:11:06;18.70;77.20
78325;DHT22;67584;51.400;6.692;2023-08-21T02:13:32;18.60;77.20
78325;DHT22;67584;51.400;6.692;2023-08-21T02:15:58;18.50;77.30
78325;DHT22;67584;51.400;6.692;2023-08-21T02:18:24;18.50;77.70
78325;DHT22;67584;51.400;6.692;2023-08-21T02:20:49;18.50;77.70
78325;DHT22;67584;51.400;6.692;2023-08-21T02:23:15;18.40;77.90
78325;DHT22;67584;51.400;6.692;2023-08-21T02:25:41;18.40;78.00
78325;DHT22;67584;51.400;6.692;2023-08-21T02:28:07;18.30;78.00
78325;DHT22;67584;51.400;6.692;2023-08-21T02:30:33;18.30;78.10
78325;DHT22;67584;51.400;6.692;2023-08-21T02:32:59;18.30;78.50
78325;DHT22;67584;51.400;6.692;2023-08-21T02:35:25;18.30;78.50
78325;DHT22;67584;51.400;6.692;2023-08-21T02:37:51;18.20;78.70
78325;DHT22;67584;51.400;6.692;2023-08-21T02:40:16;18.30;79.10
78325;DHT22;67584;51.400;6.692;2023-08-21T02:42:42;18.20;79.10
78325;DHT22;67584;51.400;6.692;2023-08-21T02:45:08;18.10;79.40
78325;DHT22;67584;51.400;6.692;2023-08-21T02:47:38;18.10;79.40
78325;DHT22;67584;51.400;6.692;2023-08-21T02:50:08;18.20;79.50
78325;DHT22;67584;51.400;6.692;2023-08-21T02:52:34;18.20;79.60
78325;DHT22;67584;51.400;6.692;2023-08-21T02:55:01;18.20;79.50
78325;DHT22;67584;51.400;6.692;2023-08-21T02:57:27;18.20;79.60
78325;DHT22;67584;51.400;6.692;2023-08-21T02:59:54;18.20;79.70
78325;DHT22;67584;51.400;6.692;2023-08-21T03:02:20;18.20;79.70
78325;DHT22;67584;51.400;6.692;2023-08-21T03:04:46;18.20;79.80
78325;DHT22;67584;51.400;6.692;2023-08-21T03:07:12;18.20;79.60
78325;DHT22;67584;51.400;6.692;2023-08-21T03:09:39;18.20;79.70
78325;DHT22;67584;51.400;6.692;2023-08-21T03:12:05;18.10;79.70
78325;DHT22;67584;51.400;6.692;2023-08-21T03:14:33;18.20;79.60
78325;DHT22;67584;51.400;6.692;2023-08-21T03:16:58;18.10;79.80
78325;DHT22;67584;51.400;6.692;2023-08-21T03:19:24;18.10;79.90
78325;DHT22;67584;51.400;6.692;2023-08-21T03:21:50;18.00;80.10
78325;DHT22;67584;51.400;6.692;2023-08-21T03:24:17;18.00;80.20
78325;DHT22;67584;51.400;6.692;2023-08-21T03:26:42;17.90;80.20
78325;DHT22;67584;51.400;6.692;2023-08-21T03:29:08;17.80;80.30
78325;DHT22;67584;51.400;6.692;2023-08-21T03:31:34;17.80;80.40
78325;DHT22;67584;51.400;6.692;2023-08-21T03:33:59;17.90;80.30
78325;DHT22;67584;51.400;6.692;2023-08-21T03:36:26;17.60;80.70
78325;DHT22;67584;51.400;6.692;2023-08-21T03:39:00;17.80;80.90
78325;DHT22;67584;51.400;6.692;2023-08-21T03:41:27;17.60;80.80
78325;DHT22;67584;51.400;6.692;2023-08-21T03:43:53;17.70;81.10
78325;DHT22;67584;51.400;6.692;2023-08-21T03:46:19;17.60;81.10
78325;DHT22;67584;51.400;6.692;2023-08-21T03:48:45;17.60;81.20
78325;DHT22;67584;51.400;6.692;2023-08-21T03:51:10;17.60;81.40
78325;DHT22;67584;51.400;6.692;2023-08-21T03:53:36;17.50;81.60
78325;DHT22;67584;51.400;6.692;2023-08-21T03:56:02;17.30;81.80
78325;DHT22;67584;51.400;6.692;2023-08-21T03:58:27;17.40;81.70
78325;DHT22;67584;51.400;6.692;2023-08-21T04:00:53;17.40;81.40
78325;DHT22;67584;51.400;6.692;2023-08-21T04:03:20;17.40;81.50
78325;DHT22;67584;51.400;6.692;2023-08-21T04:05:46;17.30;81.70
78325;DHT22;67584;51.400;6.692;2023-08-21T04:08:12;17.30;81.70
78325;DHT22;67584;51.400;6.692;2023-08-21T04:10:38;17.40;81.90
78325;DHT22;67584;51.400;6.692;2023-08-21T04:13:07;17.40;81.80
78325;DHT22;67584;51.400;6.692;2023-08-21T04:15:34;17.40;81.60
78325;DHT22;67584;51.400;6.692;2023-08-21T04:18:04;17.60;81.70
78325;DHT22;67584;51.400;6.692;2023-08-21T04:20:30;17.60;81.70
78325;DHT22;67584;51.400;6.692;2023-08-21T04:22:56;17.70;81.40
78325;DHT22;67584;51.400;6.692;2023-08-21T04:25:22;17.80;81.50
78325;DHT22;67584;51.400;6.692;2023-08-21T04:27:47;17.90;81.30
78325;DHT22;67584;51.400;6.692;2023-08-21T04:30:14;17.90;81.40
78325;DHT22;67584;51.400;6.692;2023-08-21T04:32:39;18.00;80.90
78325;DHT22;67584;51.400;6.692;2023-08-21T04:35:07;18.20;80.80
78325;DHT22;67584;51.400;6.692;2023-08-21T04:37:34;18.20;80.80
78325;DHT22;67584;51.400;6.692;2023-08-21T04:40:01;18.30;80.60
78325;DHT22;67584;51.400;6.692;2023-08-21T04:42:27;18.30;80.30
78325;DHT22;67584;51.400;6.692;2023-08-21T04:44:53;18.40;80.30
78325;DHT22;67584;51.400;6.692;2023-08-21T04:47:26;18.40;80.00
78325;DHT22;67584;51.400;6.692;2023-08-21T04:49:55;18.40;80.00
78325;DHT22;67584;51.400;6.692;2023-08-21T04:52:23;18.50;80.00
78325;DHT22;67584;51.400;6.692;2023-08-21T04:54:49;18.40;80.10
78325;DHT22;67584;51.400;6.692;2023-08-21T04:57:16;18.40;80.20
78325;DHT22;67584;51.400;6.692;2023-08-21T04:59:43;18.40;80.10
78325;DHT22;67584;51.400;6.692;2023-08-21T05:02:09;18.40;80.40
78325;DHT22;67584;51.400;6.692;2023-08-21T05:04:36;18.30;80.30
78325;DHT22;67584;51.400;6.692;2023-08-21T05:07:03;18.40;80.30
78325;DHT22;67584;51.400;6.692;2023-08-21T05:09:30;18.40;80.40
78325;DHT22;67584;51.400;6.692;2023-08-21T05:11:56;18.50;80.20
78325;DHT22;67584;51.400;6.692;2023-08-21T05:14:22;18.50;80.00
78325;DHT22;67584;51.400;6.692;2023-08-21T05:16:51;18.60;80.00
78325;DHT22;67584;51.400;6.692;2023-08-21T05:19:18;18.60;79.90
78325;DHT22;67584;51.400;6.692;2023-08-21T05:21:45;18.80;79.70
78325;DHT22;67584;51.400;6.692;2023-08-21T05:24:11;18.90;79.70
78325;DHT22;67584;51.400;6.692;2023-08-21T05:26:40;19.00;79.70
78325;DHT22;67584;51.400;6.692;2023-08-21T05:29:07;19.20;79.40
78325;DHT22;67584;51.400;6.692;2023-08-21T05:31:33;19.20;79.00
78325;DHT22;67584;51.400;6.692;2023-08-21T05:33:59;19.30;79.00
78325;DHT22;67584;51.400;6.692;2023-08-21T05:36:25;19.40;78.60
78325;DHT22;67584;51.400;6.692;2023-08-21T05:38:51;19.40;78.20
78325;DHT22;67584;51.400;6.692;2023-08-21T05:41:18;19.50;77.90
78325;DHT22;67584;51.400;6.692;2023-08-21T05:43:44;19.70;77.40
78325;DHT22;67584;51.400;6.692;2023-08-21T05:46:11;19.80;77.10
78325;DHT22;67584;51.400;6.692;2023-08-21T05:48:37;19.90;76.90
78325;DHT22;67584;51.400;6.692;2023-08-21T05:51:04;20.10;76.70
78325;DHT22;67584;51.400;6.692;2023-08-21T05:53:31;20.20;76.10
78325;DHT22;67584;51.400;6.692;2023-08-21T05:55:56;20.30;75.80
78325;DHT22;67584;51.400;6.692;2023-08-21T05:58:23;20.40;75.40
78325;DHT22;67584;51.400;6.692;2023-08-21T06:00:49;20.40;75.10
78325;DHT22;67584;51.400;6.692;2023-08-21T06:03:14;20.50;74.90
78325;DHT22;67584;51.400;6.692;2023-08-21T06:06:00;20.70;74.50
78325;DHT22;67584;51.400;6.692;2023-08-21T06:08:26;20.90;74.00
78325;DHT22;67584;51.400;6.692;2023-08-21T06:10:52;21.20;73.40
78325;DHT22;67584;51.400;6.692;2023-08-21T06:13:18;21.30;73.00
78325;DHT22;67584;51.400;6.692;2023-08-21T06:15:46;21.60;72.40
78325;DHT22;67584;51.400;6.692;2023-08-21T06:18:12;21.70;71.60
78325;DHT22;67584;51.400;6.692;2023-08-21T06:20:38;22.00;71.10
78325;DHT22;67584;51.400;6.692;2023-08-21T06:23:04;22.10;70.50
78325;DHT22;67584;51.400;6.692;2023-08-21T06:25:30;22.40;69.90
78325;DHT22;67584;51.400;6.692;2023-08-21T06:27:56;22.10;70.00
78325;DHT22;67584;51.400;6.692;2023-08-21T06:30:22;22.10;70.20
78325;DHT22;67584;51.400;6.692;2023-08-21T06:32:47;22.30;69.90
78325;DHT22;67584;51.400;6.692;2023-08-21T06:35:14;22.50;69.70
78325;DHT22;67584;51.400;6.692;2023-08-21T06:37:41;22.50;70.00
78325;DHT22;67584;51.400;6.692;2023-08-21T06:40:08;22.50;69.90
78325;DHT22;67584;51.400;6.692;2023-08-21T06:42:33;22.40;68.20
78325;DHT22;67584;51.400;6.692;2023-08-21T06:45:00;22.60;68.70
78325;DHT22;67584;51.400;6.692;2023-08-21T06:47:25;22.70;68.40
78325;DHT22;67584;51.400;6.692;2023-08-21T06:49:51;23.10;66.80
78325;DHT22;67584;51.400;6.692;2023-08-21T06:52:17;23.20;66.20
78325;DHT22;67584;51.400;6.692;2023-08-21T06:54:43;23.50;65.30
78325;DHT22;67584;51.400;6.692;2023-08-21T06:57:08;24.00;64.00
78325;DHT22;67584;51.400;6.692;2023-08-21T06:59:34;24.30;63.70
78325;DHT22;67584;51.400;6.692;2023-08-21T07:02:05;24.20;62.50
78325;DHT22;67584;51.400;6.692;2023-08-21T07:04:31;24.30;62.90
78325;DHT22;67584;51.400;6.692;2023-08-21T07:06:58;24.20;62.60
78325;DHT22;67584;51.400;6.692;2023-08-21T07:09:24;24.20;62.60
78325;DHT22;67584;51.400;6.692;2023-08-21T07:11:50;24.40;61.90
78325;DHT22;67584;51.400;6.692;2023-08-21T07:14:15;24.50;61.50
78325;DHT22;67584;51.400;6.692;2023-08-21T07:16:43;24.50;61.40
78325;DHT22;67584;51.400;6.692;2023-08-21T07:19:09;24.50;60.80
78325;DHT22;67584;51.400;6.692;2023-08-21T07:21:35;24.80;59.90
78325;DHT22;67584;51.400;6.692;2023-08-21T07:24:05;24.80;60.40
78325;DHT22;67584;51.400;6.692;2023-08-21T07:26:31;25.00;60.20
78325;DHT22;67584;51.400;6.692;2023-08-21T07:28:57;25.00;58.90
78325;DHT22;67584;51.400;6.692;2023-08-21T07:31:23;25.20;58.70
78325;DHT22;67584;51.400;6.692;2023-08-21T07:33:49;25.40;58.00
78325;DHT22;67584;51.400;6.692;2023-08-21T07:36:15;25.60;57.30
78325;DHT22;67584;51.400;6.692;2023-08-21T07:38:45;25.60;57.60
78325;DHT22;67584;51.400;6.692;2023-08-21T07:41:12;25.70;57.10
78325;DHT22;67584;51.400;6.692;2023-08-21T07:43:40;25.50;56.50
78325;DHT22;67584;51.400;6.692;2023-08-21T07:46:08;25.40;56.10
78325;DHT22;67584;51.400;6.692;2023-08-21T07:48:35;25.20;57.50
78325;DHT22;67584;51.400;6.692;2023-08-21T07:51:01;25.10;57.80
78325;DHT22;67584;51.400;6.692;2023-08-21T07:53:28;25.20;57.00
78325;DHT22;67584;51.400;6.692;2023-08-21T07:55:53;24.90;57.50
78325;DHT22;67584;51.400;6.692;2023-08-21T07:58:19;25.00;57.40
78325;DHT22;67584;51.400;6.692;2023-08-21T08:00:46;25.10;57.70
78325;DHT22;67584;51.400;6.692;2023-08-21T08:03:11;25.10;57.70
78325;DHT22;67584;51.400;6.692;2023-08-21T08:05:39;25.20;56.80
78325;DHT22;67584;51.400;6.692;2023-08-21T08:08:05;25.30;57.20
78325;DHT22;67584;51.400;6.692;2023-08-21T08:10:31;25.30;56.90
78325;DHT22;67584;51.400;6.692;2023-08-21T08:12:56;25.30;57.10
78325;DHT22;67584;51.400;6.692;2023-08-21T08:15:23;25.20;56.30
78325;DHT22;67584;51.400;6.692;2023-08-21T08:17:49;25.30;56.60
78325;DHT22;67584;51.400;6.692;2023-08-21T08:20:19;25.60;55.70
78325;DHT22;67584;51.400;6.692;2023-08-21T08:22:44;25.60;55.90
78325;DHT22;67584;51.400;6.692;2023-08-21T08:25:10;25.80;55.30
78325;DHT22;67584;51.400;6.692;2023-08-21T08:27:36;25.80;54.90
78325;DHT22;67584;51.400;6.692;2023-08-21T08:30:03;25.80;55.40
78325;DHT22;67584;51.400;6.692;2023-08-21T08:32:29;26.00;55.30
78325;DHT22;67584;51.400;6.692;2023-08-21T08:34:55;26.20;54.50
78325;DHT22;67584;51.400;6.692;2023-08-21T08:37:21;25.90;54.70
78325;DHT22;67584;51.400;6.692;2023-08-21T08:39:47;25.90;54.70
78325;DHT22;67584;51.400;6.692;2023-08-21T08:42:14;26.20;54.40
78325;DHT22;67584;51.400;6.692;2023-08-21T08:44:41;26.30;53.80
78325;DHT22;67584;51.400;6.692;2023-08-21T08:47:11;26.50;53.00
78325;DHT22;67584;51.400;6.692;2023-08-21T08:49:40;26.70;52.50
78325;DHT22;67584;51.400;6.692;2023-08-21T08:52:05;27.20;52.60
78325;DHT22;67584;51.400;6.692;2023-08-21T08:54:32;26.80;53.20
78325;DHT22;67584;51.400;6.692;2023-08-21T08:56:58;26.80;53.00
78325;DHT22;67584;51.400;6.692;2023-08-21T08:59:24;26.70;53.70
78325;DHT22;67584;51.400;6.692;2023-08-21T09:01:50;26.80;53.30
78325;DHT22;67584;51.400;6.692;2023-08-21T09:04:16;27.10;53.40
78325;DHT22;67584;51.400;6.692;2023-08-21T09:06:42;27.20;52.50
78325;DHT22;67584;51.400;6.692;2023-08-21T09:09:08;27.20;52.30
78325;DHT22;67584;51.400;6.692;2023-08-21T09:11:41;27.40;52.60
78325;DHT22;67584;51.400;6.692;2023-08-21T09:14:07;27.70;52.20
78325;DHT22;67584;51.400;6.692;2023-08-21T09:16:33;27.50;52.60
78325;DHT22;67584;51.400;6.692;2023-08-21T09:18:59;27.60;52.20
78325;DHT22;67584;51.400;6.692;2023-08-21T09:21:25;27.90;51.10
78325;DHT22;67584;51.400;6.692;2023-08-21T09:24:02;27.90;50.00
78325;DHT22;67584;51.400;6.692;2023-08-21T09:26:31;27.90;50.70
78325;DHT22;67584;51.400;6.692;2023-08-21T09:29:03;28.00;50.80
78325;DHT22;67584;51.400;6.692;2023-08-21T09:31:31;28.20;51.20
78325;DHT22;67584;51.400;6.692;2023-08-21T09:34:01;28.30;51.50
78325;DHT22;67584;51.400;6.692;2023-08-21T09:36:30;28.30;50.50
78325;DHT22;67584;51.400;6.692;2023-08-21T09:38:56;28.40;49.90
78325;DHT22;67584;51.400;6.692;2023-08-21T09:41:23;28.70;49.70
78325;DHT22;67584;51.400;6.692;2023-08-21T09:43:49;29.00;49.00
78325;DHT22;67584;51.400;6.692;2023-08-21T09:46:33;29.20;47.80
78325;DHT22;67584;51.400;6.692;2023-08-21T09:49:00;29.40;48.20
78325;DHT22;67584;51.400;6.692;2023-08-21T09:51:28;29.50;47.90
78325;DHT22;67584;51.400;6.692;2023-08-21T09:53:55;30.00;46.90
78325;DHT22;67584;51.400;6.692;2023-08-21T09:56:22;30.60;46.00
78325;DHT22;67584;51.400;6.692;2023-08-21T09:58:48;31.10;45.00
78325;DHT22;67584;51.400;6.692;2023-08-21T10:01:15;31.00;43.80
78325;DHT22;67584;51.400;6.692;2023-08-21T10:03:42;31.80;41.70
78325;DHT22;67584;51.400;6.692;2023-08-21T10:06:10;32.10;41.90
78325;DHT22;67584;51.400;6.692;2023-08-21T10:08:38;32.20;41.40
78325;DHT22;67584;51.400;6.692;2023-08-21T10:11:08;32.00;41.90
78325;DHT22;67584;51.400;6.692;2023-08-21T10:13:37;32.00;41.80
78325;DHT22;67584;51.400;6.692;2023-08-21T10:16:03;32.30;41.60
78325;DHT22;67584;51.400;6.692;2023-08-21T10:18:33;32.70;40.70
78325;DHT22;67584;51.400;6.692;2023-08-21T10:21:18;32.50;39.20
78325;DHT22;67584;51.400;6.692;2023-08-21T10:23:49;33.70;38.40
78325;DHT22;67584;51.400;6.692;2023-08-21T10:26:20;33.80;38.50
78325;DHT22;67584;51.400;6.692;2023-08-21T10:28:56;34.00;37.90
78325;DHT22;67584;51.400;6.692;2023-08-21T10:31:39;33.70;36.80
78325;DHT22;67584;51.400;6.692;2023-08-21T10:39:24;34.70;35.90
78325;DHT22;67584;51.400;6.692;2023-08-21T10:42:09;34.40;37.20
78325;DHT22;67584;51.400;6.692;2023-08-21T10:44:52;34.60;37.50
78325;DHT22;67584;51.400;6.692;2023-08-21T10:47:32;33.80;37.90
78325;DHT22;67584;51.400;6.692;2023-08-21T10:50:08;34.10;37.30
78325;DHT22;67584;51.400;6.692;2023-08-21T10:52:36;34.60;37.70
78325;DHT22;67584;51.400;6.692;2023-08-21T10:55:02;34.80;37.50
78325;DHT22;67584;51.400;6.692;2023-08-21T10:57:32;35.50;36.40
78325;DHT22;67584;51.400;6.692;2023-08-21T11:00:06;36.50;34.30
78325;DHT22;67584;51.400;6.692;2023-08-21T11:02:44;35.90;35.10
78325;DHT22;67584;51.400;6.692;2023-08-21T11:05:11;36.30;34.70
78325;DHT22;67584;51.400;6.692;2023-08-21T11:07:42;37.00;34.10
78325;DHT22;67584;51.400;6.692;2023-08-21T11:10:16;36.40;33.90
78325;DHT22;67584;51.400;6.692;2023-08-21T11:12:53;35.90;35.50
78325;DHT22;67584;51.400;6.692;2023-08-21T11:15:21;36.30;35.60
78325;DHT22;67584;51.400;6.692;2023-08-21T11:17:55;36.20;34.50
78325;DHT22;67584;51.400;6.692;2023-08-21T11:20:20;36.60;34.40
78325;DHT22;67584;51.400;6.692;2023-08-21T11:22:46;38.10;34.30
78325;DHT22;67584;51.400;6.692;2023-08-21T11:25:12;38.90;32.90
78325;DHT22;67584;51.400;6.692;2023-08-21T11:27:39;38.30;33.20
78325;DHT22;67584;51.400;6.692;2023-08-21T11:30:05;38.60;33.10
78325;DHT22;67584;51.400;6.692;2023-08-21T11:32:31;39.10;32.30
78325;DHT22;67584;51.400;6.692;2023-08-21T11:34:57;38.20;32.70
78325;DHT22;67584;51.400;6.692;2023-08-21T11:37:24;38.50;33.00
78325;DHT22;67584;51.400;6.692;2023-08-21T11:39:51;38.70;32.50
78325;DHT22;67584;51.400;6.692;2023-08-21T11:42:22;37.80;33.40
78325;DHT22;67584;51.400;6.692;2023-08-21T11:44:52;37.00;34.10
78325;DHT22;67584;51.400;6.692;2023-08-21T11:47:21;36.40;35.00
78325;DHT22;67584;51.400;6.692;2023-08-21T11:49:48;37.30;35.00
78325;DHT22;67584;51.400;6.692;2023-08-21T11:52:22;38.20;33.00
78325;DHT22;67584;51.400;6.692;2023-08-21T11:54:52;38.00;32.60
78325;DHT22;67584;51.400;6.692;2023-08-21T11:57:19;37.90;33.20
78325;DHT22;67584;51.400;6.692;2023-08-21T11:59:52;38.50;32.30
78325;DHT22;67584;51.400;6.692;2023-08-21T12:02:22;39.10;31.10
78325;DHT22;67584;51.400;6.692;2023-08-21T12:05:01;39.50;31.30
78325;DHT22;67584;51.400;6.692;2023-08-21T12:07:27;39.00;31.80
78325;DHT22;67584;51.400;6.692;2023-08-21T12:09:53;39.40;31.50
78325;DHT22;67584;51.400;6.692;2023-08-21T12:12:18;39.90;30.50
78325;DHT22;67584;51.400;6.692;2023-08-21T12:14:45;39.80;31.10
78325;DHT22;67584;51.400;6.692;2023-08-21T12:17:11;40.70;30.30
78325;DHT22;67584;51.400;6.692;2023-08-21T12:19:36;39.50;31.50
78325;DHT22;67584;51.400;6.692;2023-08-21T12:22:02;39.10;30.40
78325;DHT22;67584;51.400;6.692;2023-08-21T12:24:28;38.50;32.50
78325;DHT22;67584;51.400;6.692;2023-08-21T12:26:54;39.80;31.10
78325;DHT22;67584;51.400;6.692;2023-08-21T12:29:20;41.40;29.20
78325;DHT22;67584;51.400;6.692;2023-08-21T12:31:45;41.30;29.20
78325;DHT22;67584;51.400;6.692;2023-08-21T12:34:12;41.70;29.10
78325;DHT22;67584;51.400;6.692;2023-08-21T12:36:38;42.30;28.30
78325;DHT22;67584;51.400;6.692;2023-08-21T12:39:05;42.50;28.00
78325;DHT22;67584;51.400;6.692;2023-08-21T12:41:31;42.80;27.80
78325;DHT22;67584;51.400;6.692;2023-08-21T12:43:59;41.90;27.50
78325;DHT22;67584;51.400;6.692;2023-08-21T12:46:24;41.00;28.80
78325;DHT22;67584;51.400;6.692;2023-08-21T12:48:52;41.20;29.20
78325;DHT22;67584;51.400;6.692;2023-08-21T12:51:18;42.60;27.20
78325;DHT22;67584;51.400;6.692;2023-08-21T12:53:43;42.60;27.50
78325;DHT22;67584;51.400;6.692;2023-08-21T12:56:09;43.10;27.50
78325;DHT22;67584;51.400;6.692;2023-08-21T12:58:35;42.50;27.60
78325;DHT22;67584;51.400;6.692;2023-08-21T13:01:00;41.30;29.20
78325;DHT22;67584;51.400;6.692;2023-08-21T13:03:26;40.30;28.70
78325;DHT22;67584;51.400;6.692;2023-08-21T13:05:52;41.10;29.30
78325;DHT22;67584;51.400;6.692;2023-08-21T13:08:17;42.20;28.30
78325;DHT22;67584;51.400;6.692;2023-08-21T13:10:43;43.70;27.10
78325;DHT22;67584;51.400;6.692;2023-08-21T13:13:09;44.80;26.00
78325;DHT22;67584;51.400;6.692;2023-08-21T13:15:34;45.10;25.70
78325;DHT22;67584;51.400;6.692;2023-08-21T13:18:00;44.10;26.30
78325;DHT22;67584;51.400;6.692;2023-08-21T13:20:26;44.60;25.70
78325;DHT22;67584;51.400;6.692;2023-08-21T13:22:52;43.50;26.90
78325;DHT22;67584;51.400;6.692;2023-08-21T13:25:22;42.80;27.40
78325;DHT22;67584;51.400;6.692;2023-08-21T13:27:48;42.60;27.40
78325;DHT22;67584;51.400;6.692;2023-08-21T13:30:14;43.30;27.10
78325;DHT22;67584;51.400;6.692;2023-08-21T13:32:40;42.30;27.10
78325;DHT22;67584;51.400;6.692;2023-08-21T13:35:06;42.70;27.30
78325;DHT22;67584;51.400;6.692;2023-08-21T13:37:38;42.50;27.40
78325;DHT22;67584;51.400;6.692;2023-08-21T13:40:05;44.20;26.10
78325;DHT22;67584;51.400;6.692;2023-08-21T13:42:37;45.70;24.30
78325;DHT22;67584;51.400;6.692;2023-08-21T13:45:07;46.00;24.00
78325;DHT22;67584;51.400;6.692;2023-08-21T13:47:33;46.70;23.50
78325;DHT22;67584;51.400;6.692;2023-08-21T13:49:59;46.00;23.70
78325;DHT22;67584;51.400;6.692;2023-08-21T13:52:25;43.40;26.30
78325;DHT22;67584;51.400;6.692;2023-08-21T13:54:50;44.10;25.90
78325;DHT22;67584;51.400;6.692;2023-08-21T13:57:16;45.70;24.30
78325;DHT22;67584;51.400;6.692;2023-08-21T13:59:41;46.20;24.20
78325;DHT22;67584;51.400;6.692;2023-08-21T14:02:07;46.60;23.90
78325;DHT22;67584;51.400;6.692;2023-08-21T14:04:33;45.90;23.80
78325;DHT22;67584;51.400;6.692;2023-08-21T14:06:58;46.30;23.80
78325;DHT22;67584;51.400;6.692;2023-08-21T14:09:24;47.20;23.00
78325;DHT22;67584;51.400;6.692;2023-08-21T14:11:50;47.70;22.80
78325;DHT22;67584;51.400;6.692;2023-08-21T14:14:15;46.50;23.50
78325;DHT22;67584;51.400;6.692;2023-08-21T14:16:41;46.00;23.60
78325;DHT22;67584;51.400;6.692;2023-08-21T14:19:06;45.20;24.50
78325;DHT22;67584;51.400;6.692;2023-08-21T14:21:32;42.60;26.70
78325;DHT22;67584;51.400;6.692;2023-08-21T14:23:58;41.10;27.70
78325;DHT22;67584;51.400;6.692;2023-08-21T14:26:23;40.20;29.00
78325;DHT22;67584;51.400;6.692;2023-08-21T14:28:49;38.90;30.00
78325;DHT22;67584;51.400;6.692;2023-08-21T14:31:17;38.30;31.40
78325;DHT22;67584;51.400;6.692;2023-08-21T14:33:43;39.30;30.10
78325;DHT22;67584;51.400;6.692;2023-08-21T14:36:09;41.60;28.40
78325;DHT22;67584;51.400;6.692;2023-08-21T14:38:34;43.90;26.60
78325;DHT22;67584;51.400;6.692;2023-08-21T14:41:00;43.70;26.30
78325;DHT22;67584;51.400;6.692;2023-08-21T14:43:26;43.90;26.10
78325;DHT22;67584;51.400;6.692;2023-08-21T14:45:54;44.40;25.10
78325;DHT22;67584;51.400;6.692;2023-08-21T14:48:19;44.90;24.80
78325;DHT22;67584;51.400;6.692;2023-08-21T14:50:45;43.60;26.10
78325;DHT22;67584;51.400;6.692;2023-08-21T14:53:11;42.60;26.90
78325;DHT22;67584;51.400;6.692;2023-08-21T14:55:36;43.90;25.80
78325;DHT22;67584;51.400;6.692;2023-08-21T14:58:02;45.20;24.10
78325;DHT22;67584;51.400;6.692;2023-08-21T15:00:33;46.50;23.30
78325;DHT22;67584;51.400;6.692;2023-08-21T15:02:58;45.30;23.60
78325;DHT22;67584;51.400;6.692;2023-08-21T15:05:27;42.90;26.00
78325;DHT22;67584;51.400;6.692;2023-08-21T15:07:52;43.30;25.50
78325;DHT22;67584;51.400;6.692;2023-08-21T15:10:20;43.20;25.70
78325;DHT22;67584;51.400;6.692;2023-08-21T15:12:46;43.80;26.20
78325;DHT22;67584;51.400;6.692;2023-08-21T15:15:12;43.60;24.90
78325;DHT22;67584;51.400;6.692;2023-08-21T15:17:37;44.00;24.80
78325;DHT22;67584;51.400;6.692;2023-08-21T15:20:03;44.30;24.30
78325;DHT22;67584;51.400;6.692;2023-08-21T15:22:33;45.00;23.90
78325;DHT22;67584;51.400;6.692;2023-08-21T15:24:59;43.90;25.10
78325;DHT22;67584;51.400;6.692;2023-08-21T15:27:24;44.00;24.50
78325;DHT22;67584;51.400;6.692;2023-08-21T15:29:50;43.70;24.80
78325;DHT22;67584;51.400;6.692;2023-08-21T15:32:16;43.60;24.30
78325;DHT22;67584;51.400;6.692;2023-08-21T15:34:43;42.30;24.90
78325;DHT22;67584;51.400;6.692;2023-08-21T15:37:08;42.60;25.10
78325;DHT22;67584;51.400;6.692;2023-08-21T15:39:34;43.20;24.30